Flight Track Log - Related Links

Times and Time Zones

All times are in EDT time to prevent confusion due to time zone crossing. See the TWY926 flight status page for this flight to view local times or setup timezone preferences in your user account.

Time Position Orientation Groundspeed Altitude Reporting Facility
EDT Latitude Longitude Course Direction KTS MPH feet Rate Location/Type
Fri 04:06:24 PM 33.5786 -86.7492 358° North 179 206 1,500  Level Atlanta Center
Fri 04:06:48 PM 33.6036 -86.7500 358° North 217 250 2,600 2,835 Climbing Atlanta Center
Fri 04:07:55 PM 33.6803 -86.7747 345° North 287 330 5,800 2,628 Climbing Atlanta Center
Fri 04:08:49 PM 33.7489 -86.7894 350° North 316 364 7,900 2,211 Climbing Atlanta Center
Fri 04:09:49 PM 33.7883 -86.7083 60° Northeast 231 266 10,000 1,950 Climbing Atlanta Center
Fri 04:10:49 PM 33.8281 -86.6094 64° Northeast 259 298 11,800 2,100 Climbing Atlanta Center
Fri 04:11:49 PM 33.8989 -86.5164 47° Northeast 327 376 14,200 2,550 Climbing Atlanta Center
Fri 04:12:49 PM 33.9778 -86.4186 46° Northeast 365 420 16,900 2,900 Climbing Atlanta Center
Fri 04:13:49 PM 34.0678 -86.3033 47° Northeast 400 460 20,000 2,700 Climbing Atlanta Center
Fri 04:14:49 PM 34.1489 -86.2000 46° Northeast 422 486 22,300 1,500 Climbing Atlanta Center
Fri 04:15:49 PM 34.2364 -86.0892 46° Northeast 427 491 23,000 350 Climbing Atlanta Center
Fri 04:16:49 PM 34.3303 -85.9681 47° Northeast 457 526 23,000  Level Atlanta Center
Fri 04:17:49 PM 34.4281 -85.8494 45° Northeast 480 552 23,000 400 Level Atlanta Center
Fri 04:18:49 PM 34.5172 -85.7278 48° Northeast 480 552 23,800 1,500 Climbing Atlanta Center
Fri 04:19:49 PM 34.6086 -85.6111 46° Northeast 485 558 26,000 2,050 Climbing Atlanta Center
Fri 04:20:49 PM 34.6997 -85.4939 47° Northeast 485 558 27,900 1,450 Climbing Atlanta Center
Fri 04:21:49 PM 34.7908 -85.3742 47° Northeast 479 551 28,900 1,100 Climbing Atlanta Center
Fri 04:22:49 PM 34.8839 -85.2517 47° Northeast 479 551 30,100 1,400 Climbing Atlanta Center
Fri 04:23:49 PM 34.9792 -85.1289 47° Northeast 486 559 31,700 1,450 Climbing Atlanta Center
Fri 04:24:49 PM 35.0697 -85.0081 48° Northeast 486 559 33,000 1,300 Climbing Atlanta Center
Fri 04:25:49 PM 35.1625 -84.8872 47° Northeast 486 559 34,300 1,250 Climbing Atlanta Center
Fri 04:26:49 PM 35.2508 -84.7711 47° Northeast 486 559 35,500 1,000 Climbing Atlanta Center
Fri 04:27:49 PM 35.3392 -84.6522 48° Northeast 481 554 36,300 750 Climbing Atlanta Center
Fri 04:28:49 PM 35.4314 -84.5281 48° Northeast 481 554 37,000 350 Climbing Atlanta Center
Fri 04:29:49 PM 35.5258 -84.4114 45° Northeast 481 554 37,000  Level Atlanta Center
Fri 04:30:49 PM 35.6428 -84.3069 36° Northeast 493 567 37,000  Level Atlanta Center
Fri 04:31:49 PM 35.7536 -84.2103 35° Northeast 498 573 37,000  Level Atlanta Center
Fri 04:32:49 PM 35.8642 -84.1156 35° Northeast 493 567 37,000  Level Atlanta Center
Fri 04:33:49 PM 35.9747 -84.0183 35° Northeast 493 567 37,000  Level Atlanta Center
Fri 04:36:14 PM 36.2311 -83.7881 36° Northeast 483 556 37,000  Level Indianapolis Center
Fri 04:37:15 PM 36.3408 -83.6914 35° Northeast 484 557 37,000  Level Indianapolis Center
Fri 04:38:17 PM 36.4508 -83.5925 36° Northeast 487 560 37,000  Level Indianapolis Center
Fri 04:39:19 PM 36.5678 -83.4900 35° Northeast 487 560 37,000  Level Indianapolis Center
Fri 04:40:21 PM 36.6831 -83.3981 33° Northeast 485 558 37,000  Level Indianapolis Center
Fri 04:41:23 PM 36.8042 -83.3217 27° Northeast 483 556 37,000  Level Indianapolis Center
Fri 04:42:25 PM 36.9461 -83.2311 27° Northeast 482 555 37,000  Level Indianapolis Center
Fri 04:43:27 PM 37.0678 -83.1500 28° Northeast 485 558 37,000  Level Indianapolis Center
Fri 04:44:29 PM 37.1897 -83.0711 27° Northeast 487 560 37,000  Level Indianapolis Center
Fri 04:45:31 PM 37.3103 -82.9914 28° Northeast 483 556 37,000  Level Indianapolis Center
Fri 04:46:33 PM 37.4311 -82.9114 28° Northeast 486 559 37,000  Level Indianapolis Center
Fri 04:47:35 PM 37.5400 -82.8111 36° Northeast 486 559 37,000  Level Indianapolis Center
Fri 04:48:37 PM 37.6414 -82.6967 42° Northeast 484 557 37,000  Level Indianapolis Center
Fri 04:49:39 PM 37.7592 -82.5628 42° Northeast 486 559 37,000  Level Indianapolis Center
Fri 04:50:41 PM 37.8603 -82.4456 42° Northeast 490 564 37,000  Level Indianapolis Center
Fri 04:51:43 PM 37.9625 -82.3306 42° Northeast 489 563 37,000  Level Indianapolis Center
Fri 04:52:45 PM 38.0631 -82.2142 42° Northeast 489 563 37,000  Level Indianapolis Center
Fri 04:53:47 PM 38.1653 -82.0975 42° Northeast 485 558 37,000  Level Indianapolis Center
Fri 04:54:50 PM 38.2661 -81.9825 42° Northeast 485 558 37,000  Level Indianapolis Center
Fri 04:55:51 PM 38.3661 -81.8647 43° Northeast 488 562 37,000  Level Indianapolis Center
Fri 04:56:53 PM 38.4669 -81.7475 42° Northeast 489 563 37,000  Level Indianapolis Center
Fri 04:57:55 PM 38.5867 -81.6072 42° Northeast 488 562 37,000  Level Indianapolis Center
Fri 04:58:57 PM 38.6822 -81.4950 42° Northeast 485 558 37,000  Level Indianapolis Center
Fri 04:59:59 PM 38.7783 -81.3833 42° Northeast 487 560 37,000  Level Indianapolis Center
Fri 05:01:01 PM 38.8972 -81.2414 43° Northeast 488 562 37,000  Level Indianapolis Center
Fri 05:02:03 PM 38.9961 -81.1242 43° Northeast 486 559 37,000  Level Indianapolis Center
Fri 05:03:05 PM 39.0961 -81.0050 43° Northeast 489 563 37,000  Level Indianapolis Center
Fri 05:04:07 PM 39.1931 -80.8894 43° Northeast 478 550 37,000  Level Indianapolis Center
Fri 05:05:09 PM 39.2906 -80.7728 43° Northeast 478 550 37,000  Level Indianapolis Center
Fri 05:06:11 PM 39.3867 -80.6550 43° Northeast 477 549 37,000  Level Indianapolis Center
Fri 05:07:00 PM 39.4711 -80.5561 42° Northeast 472 543 37,000  Level Cleveland Center
Fri 05:08:00 PM 39.5667 -80.4403 43° Northeast 472 543 37,000  Level Cleveland Center
Fri 05:09:00 PM 39.6644 -80.3214 43° Northeast 477 549 37,000  Level Cleveland Center
Fri 05:10:00 PM 39.7600 -80.2022 44° Northeast 472 543 37,000  Level Cleveland Center
Fri 05:11:00 PM 39.8578 -80.0881 42° Northeast 472 543 37,000  Level Cleveland Center
Fri 05:12:00 PM 39.9550 -79.9683 43° Northeast 472 543 37,000  Level Cleveland Center
Fri 05:13:00 PM 40.0481 -79.8508 44° Northeast 472 543 37,000  Level Cleveland Center
Fri 05:14:00 PM 40.1433 -79.7303 44° Northeast 472 543 37,000  Level Cleveland Center
Fri 05:15:00 PM 40.2381 -79.6122 44° Northeast 472 543 37,000  Level Cleveland Center
Fri 05:16:00 PM 40.3308 -79.4936 44° Northeast 472 543 37,000  Level Cleveland Center
Fri 05:17:00 PM 40.4236 -79.3775 44° Northeast 472 543 37,000  Level Cleveland Center
Fri 05:18:00 PM 40.5222 -79.2503 44° Northeast 466 536 37,000  Level Cleveland Center
Fri 05:19:00 PM 40.6003 -79.1556 43° Northeast 461 531 37,000  Level Cleveland Center
Fri 05:20:00 PM 40.7089 -79.0164 44° Northeast 461 531 37,000  Level Cleveland Center
Fri 05:21:00 PM 40.7969 -78.9017 45° Northeast 454 522 37,000  Level Cleveland Center
Fri 05:22:00 PM 40.8950 -78.7783 44° Northeast 454 522 37,000  Level Cleveland Center
Fri 05:23:00 PM 40.9869 -78.6603 44° Northeast 454 522 37,000  Level Cleveland Center
Fri 05:24:00 PM 41.0789 -78.5419 44° Northeast 454 522 37,000  Level Cleveland Center
Fri 05:25:00 PM 41.1683 -78.4233 45° Northeast 454 522 37,000  Level Cleveland Center
Fri 05:26:00 PM 41.2619 -78.3014 44° Northeast 454 522 37,000  Level Cleveland Center
Fri 05:27:00 PM 41.3411 -78.1964 45° Northeast 448 516 37,000  Level Cleveland Center
Fri 05:27:45 PM 41.4253 -78.0842 45° Northeast 464 534 37,000  Level New Center
Fri 05:28:46 PM 41.5047 -77.9764 45° Northeast 445 512 37,000  Level New Center
Fri 05:29:47 PM 41.5658 -77.8303 61° Northeast 439 505 37,000  Level New Center
Fri 05:30:47 PM 41.6208 -77.6722 65° Northeast 444 511 37,000  Level New Center
Fri 05:31:45 PM 41.6778 -77.5169 64° Northeast 454 522 37,000  Level New Center
Fri 05:32:46 PM 41.7319 -77.3642 65° Northeast 454 522 37,000  Level New Center
Fri 05:33:46 PM 41.7842 -77.2106 65° Northeast 454 522 37,000  Level New Center
Fri 05:34:47 PM 41.8336 -77.0650 65° Northeast 459 528 37,000  Level New Center
Fri 05:35:47 PM 41.8894 -76.9117 64° Northeast 459 528 37,000  Level New Center
Fri 05:37:32 PM 41.9892 -76.6333 64° Northeast 455 524 37,000  Level Boston Center
Fri 05:38:32 PM 42.0428 -76.4775 65° Northeast 455 524 37,000  Level Boston Center
Fri 05:39:32 PM 42.0961 -76.3242 65° Northeast 455 524 37,000  Level Boston Center
Fri 05:40:32 PM 42.1517 -76.1650 65° Northeast 455 524 37,000  Level Boston Center
Fri 05:41:32 PM 42.2047 -76.0083 65° Northeast 455 524 37,000  Level Boston Center
Fri 05:42:32 PM 42.2572 -75.8569 65° Northeast 455 524 37,000  Level Boston Center
Fri 05:43:32 PM 42.3075 -75.7081 65° Northeast 450 518 37,000  Level Boston Center
Fri 05:44:32 PM 42.3619 -75.5508 65° Northeast 450 518 37,000  Level Boston Center
Fri 05:45:32 PM 42.4139 -75.3986 65° Northeast 450 518 37,000 -500 Level Boston Center
Fri 05:46:32 PM 42.4658 -75.2464 65° Northeast 450 518 36,000 -1,550 Descending Boston Center
Fri 05:47:32 PM 42.4989 -75.0789 75° East 450 518 33,900 -2,250 Descending Boston Center
Fri 05:48:32 PM 42.5344 -74.8942 75° East 455 524 31,500 -2,200 Descending Boston Center
Fri 05:49:32 PM 42.5669 -74.7292 75° East 455 524 29,500 -1,250 Descending Boston Center
Fri 05:50:32 PM 42.5889 -74.5664 80° East 450 518 29,000 -250 Descending Boston Center
Fri 05:51:32 PM 42.5892 -74.4311 90° East 450 518 29,000  Level Boston Center
Fri 05:52:32 PM 42.5864 -74.2253 91° East 445 512 29,000  Level Boston Center
Fri 05:53:32 PM 42.5847 -74.0531 91° East 445 512 29,000 -100 Level Boston Center
Fri 05:54:32 PM 42.5789 -73.8781 93° East 455 524 28,800 -1,000 Descending Boston Center
Fri 05:55:32 PM 42.5767 -73.7061 91° East 460 529 27,000 -1,636 Descending Boston Center
Fri 05:56:44 PM 42.5722 -73.5425 92° East 453 521 25,200 -1,364 Descending Boston Center
Fri 05:57:44 PM 42.5675 -73.3564 92° East 439 505 24,000 -600 Descending Boston Center
Fri 05:58:44 PM 42.5625 -73.1956 92° East 444 511 24,000 -800 Level Boston Center
Fri 05:59:44 PM 42.5572 -73.0264 92° East 444 511 22,400 -1,850 Descending Boston Center
Fri 06:00:44 PM 42.5517 -72.8600 93° East 439 505 20,300 -2,100 Descending Boston Center
Fri 06:01:44 PM 42.5544 -72.6994 89° East 411 473 18,200 -1,900 Descending Boston Center
Fri 06:02:44 PM 42.5775 -72.5725 76° East 396 456 16,500 -1,950 Descending Boston Center
Fri 06:03:44 PM 42.5942 -72.4258 81° East 391 450 14,300 -2,250 Descending Boston Center
Fri 06:04:44 PM 42.5733 -72.2653 100° East 386 444 12,000 -2,050 Descending Boston Center
Fri 06:05:44 PM 42.5606 -72.1414 98° East 356 410 10,200 -1,450 Descending Boston Center
Fri 06:06:44 PM 42.5519 -72.0597 98° East 308 354 9,100 -1,150 Descending Boston Center
Fri 06:07:44 PM 42.5389 -71.9358 98° East 273 314 7,900 -1,000 Descending Boston Center
Fri 06:08:44 PM 42.5281 -71.8400 99° East 273 314 7,100 -1,100 Descending Boston Center
Fri 06:09:44 PM 42.5192 -71.7444 97° East 257 296 5,700 -1,350 Descending Boston Center
Fri 06:10:44 PM 42.5103 -71.6656 99° East 233 268 4,400 -900 Descending Boston Center
Fri 06:11:44 PM 42.5014 -71.5783 98° East 220 253 3,900 -650 Descending Boston Center
Fri 06:12:44 PM 42.4925 -71.5053 99° East 215 247 3,100 -900 Descending Boston Center
Fri 06:13:44 PM 42.4856 -71.4322 97° East 192 221 2,100 -900 Descending Boston Center
Fri 06:14:44 PM 42.4789 -71.3761 99° East 168 193 1,300 -750 Descending Boston Center
Fri 06:15:44 PM 42.4761 -71.3197 94° East 141 162 600 2,350 Descending Boston Center
Fri 06:16:44 PM 42.4694 -71.2747 101° East 141 162 6,000 2,700 Climbing Boston Center
Fri 06:17:44 PM 42.4628 -71.2272 101° East 141 162 6,000  Level Boston Center
Fri 06:18:44 PM 42.4581 -71.1767 97° East 141 162 6,000  Level Boston Center
Fri 06:19:44 PM 42.4511 -71.1289 101° East 141 162 6,000  Level Boston Center
Fri 06:20:44 PM 42.4511 -71.1175 90° East 141 162 6,000  Level Boston Center
Fri 06:23:00 PM 42.4699 -71.2890 279° West  Level Estimated
Fri 06:30:00 PM 42.4699 -71.2890 North  Level Estimated

Login

Don't have an account? Register now (free) for customized features, flight alerts, and more!